sensor_id;sensor_type;location;lat;lon;timestamp;P1;durP1;ratioP1;P2;durP2;ratioP2
77409;SDS011;66481;51.332;22.804;2023-08-21T00:02:58;22.80;;;19.00;;
77409;SDS011;66481;51.332;22.804;2023-08-21T00:06:59;25.13;;;20.58;;
77409;SDS011;66481;51.332;22.804;2023-08-21T00:11:01;23.98;;;20.60;;
77409;SDS011;66481;51.332;22.804;2023-08-21T00:15:02;24.65;;;21.52;;
77409;SDS011;66481;51.332;22.804;2023-08-21T00:19:04;23.27;;;20.75;;
77409;SDS011;66481;51.332;22.804;2023-08-21T00:23:05;27.05;;;21.02;;
77409;SDS011;66481;51.332;22.804;2023-08-21T00:27:06;26.48;;;22.38;;
77409;SDS011;66481;51.332;22.804;2023-08-21T00:31:07;28.25;;;22.33;;
77409;SDS011;66481;51.332;22.804;2023-08-21T00:35:08;27.48;;;22.35;;
77409;SDS011;66481;51.332;22.804;2023-08-21T00:39:10;26.15;;;21.00;;
77409;SDS011;66481;51.332;22.804;2023-08-21T00:43:11;27.27;;;21.45;;
77409;SDS011;66481;51.332;22.804;2023-08-21T00:47:13;27.02;;;21.00;;
77409;SDS011;66481;51.332;22.804;2023-08-21T00:51:14;27.67;;;23.77;;
77409;SDS011;66481;51.332;22.804;2023-08-21T00:55:16;30.83;;;25.02;;
77409;SDS011;66481;51.332;22.804;2023-08-21T00:59:18;29.60;;;23.63;;
77409;SDS011;66481;51.332;22.804;2023-08-21T01:03:20;28.77;;;22.02;;
77409;SDS011;66481;51.332;22.804;2023-08-21T01:07:22;28.83;;;23.80;;
77409;SDS011;66481;51.332;22.804;2023-08-21T01:11:35;27.67;;;23.48;;
77409;SDS011;66481;51.332;22.804;2023-08-21T01:15:44;30.13;;;24.08;;
77409;SDS011;66481;51.332;22.804;2023-08-21T01:19:47;28.23;;;23.92;;
77409;SDS011;66481;51.332;22.804;2023-08-21T01:23:50;30.10;;;23.55;;
77409;SDS011;66481;51.332;22.804;2023-08-21T01:27:51;26.48;;;22.70;;
77409;SDS011;66481;51.332;22.804;2023-08-21T01:36:19;30.17;;;22.35;;
77409;SDS011;66481;51.332;22.804;2023-08-21T01:40:23;28.65;;;24.08;;
77409;SDS011;66481;51.332;22.804;2023-08-21T01:44:24;31.30;;;24.10;;
77409;SDS011;66481;51.332;22.804;2023-08-21T01:48:27;28.83;;;22.98;;
77409;SDS011;66481;51.332;22.804;2023-08-21T01:52:27;29.33;;;22.52;;
77409;SDS011;66481;51.332;22.804;2023-08-21T01:56:28;32.40;;;24.73;;
77409;SDS011;66481;51.332;22.804;2023-08-21T02:00:29;29.73;;;22.83;;
77409;SDS011;66481;51.332;22.804;2023-08-21T02:04:30;28.63;;;22.30;;
77409;SDS011;66481;51.332;22.804;2023-08-21T02:08:31;30.95;;;24.10;;
77409;SDS011;66481;51.332;22.804;2023-08-21T02:12:33;29.63;;;24.65;;
77409;SDS011;66481;51.332;22.804;2023-08-21T02:16:34;31.80;;;24.80;;
77409;SDS011;66481;51.332;22.804;2023-08-21T02:20:35;31.90;;;26.63;;
77409;SDS011;66481;51.332;22.804;2023-08-21T02:24:37;30.70;;;25.52;;
77409;SDS011;66481;51.332;22.804;2023-08-21T02:28:39;30.83;;;25.67;;
77409;SDS011;66481;51.332;22.804;2023-08-21T02:32:40;28.27;;;24.60;;
77409;SDS011;66481;51.332;22.804;2023-08-21T02:36:40;30.20;;;24.75;;
77409;SDS011;66481;51.332;22.804;2023-08-21T02:40:41;29.20;;;25.50;;
77409;SDS011;66481;51.332;22.804;2023-08-21T02:44:42;29.88;;;24.50;;
77409;SDS011;66481;51.332;22.804;2023-08-21T02:48:42;30.10;;;24.65;;
77409;SDS011;66481;51.332;22.804;2023-08-21T02:52:43;32.03;;;26.17;;
77409;SDS011;66481;51.332;22.804;2023-08-21T02:56:44;34.88;;;27.98;;
77409;SDS011;66481;51.332;22.804;2023-08-21T03:00:46;34.88;;;27.05;;
77409;SDS011;66481;51.332;22.804;2023-08-21T03:04:47;34.38;;;26.52;;
77409;SDS011;66481;51.332;22.804;2023-08-21T03:08:48;32.13;;;24.42;;
77409;SDS011;66481;51.332;22.804;2023-08-21T03:12:49;30.92;;;24.58;;
77409;SDS011;66481;51.332;22.804;2023-08-21T03:16:50;32.55;;;26.38;;
77409;SDS011;66481;51.332;22.804;2023-08-21T03:20:51;35.00;;;26.38;;
77409;SDS011;66481;51.332;22.804;2023-08-21T03:24:51;34.05;;;26.92;;
77409;SDS011;66481;51.332;22.804;2023-08-21T03:28:52;32.17;;;25.13;;
77409;SDS011;66481;51.332;22.804;2023-08-21T03:32:53;37.15;;;29.35;;
77409;SDS011;66481;51.332;22.804;2023-08-21T03:36:54;35.75;;;26.25;;
77409;SDS011;66481;51.332;22.804;2023-08-21T03:40:55;37.40;;;27.52;;
77409;SDS011;66481;51.332;22.804;2023-08-21T03:44:56;32.78;;;25.75;;
77409;SDS011;66481;51.332;22.804;2023-08-21T03:48:58;33.35;;;26.50;;
77409;SDS011;66481;51.332;22.804;2023-08-21T03:52:59;28.55;;;24.60;;
77409;SDS011;66481;51.332;22.804;2023-08-21T03:57:00;31.20;;;24.33;;
77409;SDS011;66481;51.332;22.804;2023-08-21T04:01:01;26.42;;;23.02;;
77409;SDS011;66481;51.332;22.804;2023-08-21T04:05:02;26.10;;;21.90;;
77409;SDS011;66481;51.332;22.804;2023-08-21T04:09:04;25.55;;;22.08;;
77409;SDS011;66481;51.332;22.804;2023-08-21T04:13:07;25.73;;;20.80;;
77409;SDS011;66481;51.332;22.804;2023-08-21T04:17:07;23.90;;;20.08;;
77409;SDS011;66481;51.332;22.804;2023-08-21T04:21:08;24.38;;;21.77;;
77409;SDS011;66481;51.332;22.804;2023-08-21T04:25:10;23.30;;;20.80;;
77409;SDS011;66481;51.332;22.804;2023-08-21T04:29:12;23.73;;;21.20;;
77409;SDS011;66481;51.332;22.804;2023-08-21T04:33:13;22.75;;;20.35;;
77409;SDS011;66481;51.332;22.804;2023-08-21T04:37:13;23.85;;;21.35;;
77409;SDS011;66481;51.332;22.804;2023-08-21T04:41:15;22.42;;;20.00;;
77409;SDS011;66481;51.332;22.804;2023-08-21T04:45:16;22.40;;;20.17;;
77409;SDS011;66481;51.332;22.804;2023-08-21T04:49:17;21.05;;;18.98;;
77409;SDS011;66481;51.332;22.804;2023-08-21T04:53:18;22.08;;;19.67;;
77409;SDS011;66481;51.332;22.804;2023-08-21T04:57:19;22.00;;;19.80;;
77409;SDS011;66481;51.332;22.804;2023-08-21T05:01:21;20.33;;;18.20;;
77409;SDS011;66481;51.332;22.804;2023-08-21T05:05:22;22.98;;;20.58;;
77409;SDS011;66481;51.332;22.804;2023-08-21T05:09:23;22.05;;;19.75;;
77409;SDS011;66481;51.332;22.804;2023-08-21T05:13:24;22.45;;;20.27;;
77409;SDS011;66481;51.332;22.804;2023-08-21T05:17:25;21.33;;;19.35;;
77409;SDS011;66481;51.332;22.804;2023-08-21T05:25:28;22.38;;;20.08;;
77409;SDS011;66481;51.332;22.804;2023-08-21T05:29:30;20.40;;;18.23;;
77409;SDS011;66481;51.332;22.804;2023-08-21T05:33:31;23.27;;;20.90;;
77409;SDS011;66481;51.332;22.804;2023-08-21T05:37:32;22.25;;;19.98;;
77409;SDS011;66481;51.332;22.804;2023-08-21T05:41:33;21.98;;;19.88;;
77409;SDS011;66481;51.332;22.804;2023-08-21T05:45:35;22.05;;;19.38;;
77409;SDS011;66481;51.332;22.804;2023-08-21T05:49:36;19.73;;;17.83;;
77409;SDS011;66481;51.332;22.804;2023-08-21T05:53:38;21.25;;;19.35;;
77409;SDS011;66481;51.332;22.804;2023-08-21T05:57:39;18.75;;;17.05;;
77409;SDS011;66481;51.332;22.804;2023-08-21T06:01:40;20.02;;;18.13;;
77409;SDS011;66481;51.332;22.804;2023-08-21T06:05:41;20.50;;;18.65;;
77409;SDS011;66481;51.332;22.804;2023-08-21T06:09:44;23.02;;;18.67;;
77409;SDS011;66481;51.332;22.804;2023-08-21T06:13:45;19.00;;;17.40;;
77409;SDS011;66481;51.332;22.804;2023-08-21T06:17:48;19.02;;;17.27;;
77409;SDS011;66481;51.332;22.804;2023-08-21T06:25:50;17.92;;;16.40;;
77409;SDS011;66481;51.332;22.804;2023-08-21T06:29:51;18.83;;;17.05;;
77409;SDS011;66481;51.332;22.804;2023-08-21T06:33:52;18.92;;;17.20;;
77409;SDS011;66481;51.332;22.804;2023-08-21T06:37:53;19.10;;;17.20;;
77409;SDS011;66481;51.332;22.804;2023-08-21T06:45:56;18.63;;;16.92;;
77409;SDS011;66481;51.332;22.804;2023-08-21T06:49:58;16.50;;;14.95;;
77409;SDS011;66481;51.332;22.804;2023-08-21T06:54:01;15.85;;;14.10;;
77409;SDS011;66481;51.332;22.804;2023-08-21T06:58:02;15.05;;;13.77;;
77409;SDS011;66481;51.332;22.804;2023-08-21T07:02:05;15.77;;;14.38;;
77409;SDS011;66481;51.332;22.804;2023-08-21T07:06:06;15.32;;;14.02;;
77409;SDS011;66481;51.332;22.804;2023-08-21T07:10:07;15.45;;;14.07;;
77409;SDS011;66481;51.332;22.804;2023-08-21T07:14:09;12.95;;;11.80;;
77409;SDS011;66481;51.332;22.804;2023-08-21T07:18:10;14.50;;;13.27;;
77409;SDS011;66481;51.332;22.804;2023-08-21T07:22:11;14.38;;;13.18;;
77409;SDS011;66481;51.332;22.804;2023-08-21T07:26:12;13.98;;;12.77;;
77409;SDS011;66481;51.332;22.804;2023-08-21T07:34:16;12.27;;;11.27;;
77409;SDS011;66481;51.332;22.804;2023-08-21T07:38:17;13.95;;;12.80;;
77409;SDS011;66481;51.332;22.804;2023-08-21T07:42:18;13.70;;;12.57;;
77409;SDS011;66481;51.332;22.804;2023-08-21T07:46:19;13.95;;;12.80;;
77409;SDS011;66481;51.332;22.804;2023-08-21T07:50:20;12.48;;;11.27;;
77409;SDS011;66481;51.332;22.804;2023-08-21T07:58:22;14.27;;;13.07;;
77409;SDS011;66481;51.332;22.804;2023-08-21T08:02:23;12.68;;;11.57;;
77409;SDS011;66481;51.332;22.804;2023-08-21T08:06:25;13.38;;;12.15;;
77409;SDS011;66481;51.332;22.804;2023-08-21T08:10:26;13.20;;;12.13;;
77409;SDS011;66481;51.332;22.804;2023-08-21T08:18:28;11.48;;;10.57;;
77409;SDS011;66481;51.332;22.804;2023-08-21T08:22:29;11.05;;;10.15;;
77409;SDS011;66481;51.332;22.804;2023-08-21T08:26:31;10.25;;;9.40;;
77409;SDS011;66481;51.332;22.804;2023-08-21T08:30:33;11.52;;;10.63;;
77409;SDS011;66481;51.332;22.804;2023-08-21T08:34:34;11.18;;;10.25;;
77409;SDS011;66481;51.332;22.804;2023-08-21T08:38:36;10.35;;;9.55;;
77409;SDS011;66481;51.332;22.804;2023-08-21T08:42:38;11.60;;;10.60;;
77409;SDS011;66481;51.332;22.804;2023-08-21T08:46:39;11.73;;;10.73;;
77409;SDS011;66481;51.332;22.804;2023-08-21T08:50:41;8.73;;;7.93;;
77409;SDS011;66481;51.332;22.804;2023-08-21T08:54:44;9.90;;;9.00;;
77409;SDS011;66481;51.332;22.804;2023-08-21T08:58:46;10.27;;;9.13;;
77409;SDS011;66481;51.332;22.804;2023-08-21T09:02:48;9.98;;;8.95;;
77409;SDS011;66481;51.332;22.804;2023-08-21T09:06:49;10.85;;;9.82;;
77409;SDS011;66481;51.332;22.804;2023-08-21T09:15:31;11.05;;;10.05;;
77409;SDS011;66481;51.332;22.804;2023-08-21T09:19:32;11.18;;;10.18;;
77409;SDS011;66481;51.332;22.804;2023-08-21T09:23:34;10.15;;;9.23;;
77409;SDS011;66481;51.332;22.804;2023-08-21T09:27:40;10.30;;;9.50;;
77409;SDS011;66481;51.332;22.804;2023-08-21T09:31:41;10.63;;;9.57;;
77409;SDS011;66481;51.332;22.804;2023-08-21T09:35:47;11.55;;;10.63;;
77409;SDS011;66481;51.332;22.804;2023-08-21T09:39:49;11.02;;;9.85;;
77409;SDS011;66481;51.332;22.804;2023-08-21T09:43:50;11.82;;;10.63;;
77409;SDS011;66481;51.332;22.804;2023-08-21T09:47:51;11.73;;;10.63;;
77409;SDS011;66481;51.332;22.804;2023-08-21T09:51:53;13.70;;;12.38;;
77409;SDS011;66481;51.332;22.804;2023-08-21T09:55:56;14.07;;;12.63;;
77409;SDS011;66481;51.332;22.804;2023-08-21T09:59:57;16.30;;;14.43;;
77409;SDS011;66481;51.332;22.804;2023-08-21T10:04:01;16.42;;;14.88;;
77409;SDS011;66481;51.332;22.804;2023-08-21T10:08:05;16.17;;;14.63;;
77409;SDS011;66481;51.332;22.804;2023-08-21T10:12:08;16.75;;;15.05;;
77409;SDS011;66481;51.332;22.804;2023-08-21T10:16:12;16.38;;;14.65;;
77409;SDS011;66481;51.332;22.804;2023-08-21T10:20:15;17.50;;;15.65;;
77409;SDS011;66481;51.332;22.804;2023-08-21T10:24:27;16.88;;;15.15;;
77409;SDS011;66481;51.332;22.804;2023-08-21T10:28:49;16.92;;;15.32;;
77409;SDS011;66481;51.332;22.804;2023-08-21T10:32:57;19.08;;;16.10;;
77409;SDS011;66481;51.332;22.804;2023-08-21T10:37:07;17.83;;;15.20;;
77409;SDS011;66481;51.332;22.804;2023-08-21T10:41:13;18.85;;;16.90;;
77409;SDS011;66481;51.332;22.804;2023-08-21T10:45:14;17.02;;;15.52;;
77409;SDS011;66481;51.332;22.804;2023-08-21T10:49:16;18.02;;;16.08;;
77409;SDS011;66481;51.332;22.804;2023-08-21T10:53:16;17.38;;;15.65;;
77409;SDS011;66481;51.332;22.804;2023-08-21T10:57:19;16.33;;;14.82;;
77409;SDS011;66481;51.332;22.804;2023-08-21T11:01:20;16.65;;;15.02;;
77409;SDS011;66481;51.332;22.804;2023-08-21T11:05:21;15.98;;;14.50;;
77409;SDS011;66481;51.332;22.804;2023-08-21T11:09:22;16.42;;;14.88;;
77409;SDS011;66481;51.332;22.804;2023-08-21T11:13:26;15.50;;;13.95;;
77409;SDS011;66481;51.332;22.804;2023-08-21T11:17:27;14.73;;;13.32;;
77409;SDS011;66481;51.332;22.804;2023-08-21T11:21:28;15.63;;;13.95;;
77409;SDS011;66481;51.332;22.804;2023-08-21T11:25:29;15.88;;;13.65;;
77409;SDS011;66481;51.332;22.804;2023-08-21T11:33:48;16.38;;;13.02;;
77409;SDS011;66481;51.332;22.804;2023-08-21T11:37:51;15.90;;;13.27;;
77409;SDS011;66481;51.332;22.804;2023-08-21T11:41:52;16.23;;;12.98;;
77409;SDS011;66481;51.332;22.804;2023-08-21T11:45:57;14.18;;;12.85;;
77409;SDS011;66481;51.332;22.804;2023-08-21T11:50:01;15.85;;;12.43;;
77409;SDS011;66481;51.332;22.804;2023-08-21T11:54:07;13.77;;;12.38;;
77409;SDS011;66481;51.332;22.804;2023-08-21T11:58:09;12.32;;;11.15;;
77409;SDS011;66481;51.332;22.804;2023-08-21T12:02:14;12.57;;;11.32;;
77409;SDS011;66481;51.332;22.804;2023-08-21T12:06:17;14.15;;;11.48;;
77409;SDS011;66481;51.332;22.804;2023-08-21T12:10:24;12.75;;;11.43;;
77409;SDS011;66481;51.332;22.804;2023-08-21T12:14:27;14.77;;;12.18;;
77409;SDS011;66481;51.332;22.804;2023-08-21T12:18:30;12.75;;;10.90;;
77409;SDS011;66481;51.332;22.804;2023-08-21T12:22:31;11.32;;;10.23;;
77409;SDS011;66481;51.332;22.804;2023-08-21T12:26:33;11.98;;;10.80;;
77409;SDS011;66481;51.332;22.804;2023-08-21T12:30:36;10.20;;;9.25;;
77409;SDS011;66481;51.332;22.804;2023-08-21T12:34:37;9.82;;;8.82;;
77409;SDS011;66481;51.332;22.804;2023-08-21T12:38:38;11.85;;;9.70;;
77409;SDS011;66481;51.332;22.804;2023-08-21T12:42:40;9.00;;;8.10;;
77409;SDS011;66481;51.332;22.804;2023-08-21T12:46:41;9.45;;;8.35;;
77409;SDS011;66481;51.332;22.804;2023-08-21T12:54:46;7.43;;;6.72;;
77409;SDS011;66481;51.332;22.804;2023-08-21T12:58:46;7.43;;;6.72;;
77409;SDS011;66481;51.332;22.804;2023-08-21T13:02:48;7.45;;;6.75;;
77409;SDS011;66481;51.332;22.804;2023-08-21T13:06:49;7.63;;;6.82;;
77409;SDS011;66481;51.332;22.804;2023-08-21T13:10:50;7.82;;;7.03;;
77409;SDS011;66481;51.332;22.804;2023-08-21T13:14:51;11.77;;;9.80;;
77409;SDS011;66481;51.332;22.804;2023-08-21T13:18:53;9.27;;;8.38;;
77409;SDS011;66481;51.332;22.804;2023-08-21T13:22:58;13.15;;;9.45;;
77409;SDS011;66481;51.332;22.804;2023-08-21T13:26:59;10.10;;;9.10;;
77409;SDS011;66481;51.332;22.804;2023-08-21T13:31:01;8.88;;;8.07;;
77409;SDS011;66481;51.332;22.804;2023-08-21T13:35:04;9.52;;;8.63;;
77409;SDS011;66481;51.332;22.804;2023-08-21T13:39:08;8.75;;;7.88;;
77409;SDS011;66481;51.332;22.804;2023-08-21T13:43:11;9.95;;;8.30;;
77409;SDS011;66481;51.332;22.804;2023-08-21T13:47:13;8.82;;;7.95;;
77409;SDS011;66481;51.332;22.804;2023-08-21T13:51:14;9.35;;;7.10;;
77409;SDS011;66481;51.332;22.804;2023-08-21T13:55:16;8.98;;;7.03;;
77409;SDS011;66481;51.332;22.804;2023-08-21T13:59:17;7.97;;;7.28;;
77409;SDS011;66481;51.332;22.804;2023-08-21T14:03:18;58.28;;;52.13;;
77409;SDS011;66481;51.332;22.804;2023-08-21T14:07:19;29.85;;;16.83;;
77409;SDS011;66481;51.332;22.804;2023-08-21T14:11:21;10.07;;;8.00;;
77409;SDS011;66481;51.332;22.804;2023-08-21T14:15:23;20.35;;;10.02;;
77409;SDS011;66481;51.332;22.804;2023-08-21T14:19:24;16.63;;;8.20;;
77409;SDS011;66481;51.332;22.804;2023-08-21T14:23:25;10.18;;;7.22;;
77409;SDS011;66481;51.332;22.804;2023-08-21T14:27:27;8.70;;;6.28;;
77409;SDS011;66481;51.332;22.804;2023-08-21T14:31:28;11.63;;;6.35;;
77409;SDS011;66481;51.332;22.804;2023-08-21T14:35:29;8.18;;;5.40;;
77409;SDS011;66481;51.332;22.804;2023-08-21T14:39:30;5.75;;;4.80;;
77409;SDS011;66481;51.332;22.804;2023-08-21T14:43:31;8.00;;;5.65;;
77409;SDS011;66481;51.332;22.804;2023-08-21T14:47:32;8.15;;;5.25;;
77409;SDS011;66481;51.332;22.804;2023-08-21T14:51:33;5.63;;;5.10;;
77409;SDS011;66481;51.332;22.804;2023-08-21T14:55:34;6.78;;;5.07;;
77409;SDS011;66481;51.332;22.804;2023-08-21T14:59:38;5.20;;;4.70;;
77409;SDS011;66481;51.332;22.804;2023-08-21T15:03:39;5.40;;;4.50;;
77409;SDS011;66481;51.332;22.804;2023-08-21T15:07:40;6.28;;;4.60;;
77409;SDS011;66481;51.332;22.804;2023-08-21T15:11:41;6.85;;;4.45;;
77409;SDS011;66481;51.332;22.804;2023-08-21T15:15:42;5.38;;;4.63;;
77409;SDS011;66481;51.332;22.804;2023-08-21T15:19:43;6.25;;;5.38;;
77409;SDS011;66481;51.332;22.804;2023-08-21T15:23:44;6.25;;;4.60;;
77409;SDS011;66481;51.332;22.804;2023-08-21T15:27:45;5.57;;;4.40;;
77409;SDS011;66481;51.332;22.804;2023-08-21T15:31:46;5.65;;;4.47;;
77409;SDS011;66481;51.332;22.804;2023-08-21T15:35:47;5.03;;;4.32;;
77409;SDS011;66481;51.332;22.804;2023-08-21T15:39:47;5.60;;;4.97;;
77409;SDS011;66481;51.332;22.804;2023-08-21T15:43:48;5.32;;;4.68;;
77409;SDS011;66481;51.332;22.804;2023-08-21T15:47:49;5.88;;;4.78;;
77409;SDS011;66481;51.332;22.804;2023-08-21T15:51:50;6.45;;;5.13;;
77409;SDS011;66481;51.332;22.804;2023-08-21T15:55:51;6.20;;;5.45;;
77409;SDS011;66481;51.332;22.804;2023-08-21T15:59:52;6.20;;;5.60;;
77409;SDS011;66481;51.332;22.804;2023-08-21T16:03:52;5.72;;;5.03;;
77409;SDS011;66481;51.332;22.804;2023-08-21T16:07:53;6.72;;;5.45;;
77409;SDS011;66481;51.332;22.804;2023-08-21T16:11:56;7.03;;;6.32;;
77409;SDS011;66481;51.332;22.804;2023-08-21T16:15:57;6.28;;;5.68;;
77409;SDS011;66481;51.332;22.804;2023-08-21T16:19:59;6.18;;;5.57;;
77409;SDS011;66481;51.332;22.804;2023-08-21T16:24:05;6.93;;;6.32;;
77409;SDS011;66481;51.332;22.804;2023-08-21T16:32:11;6.65;;;6.05;;
77409;SDS011;66481;51.332;22.804;2023-08-21T16:36:13;8.93;;;6.60;;
77409;SDS011;66481;51.332;22.804;2023-08-21T16:40:15;19.52;;;14.65;;
77409;SDS011;66481;51.332;22.804;2023-08-21T16:44:16;10.15;;;6.35;;
77409;SDS011;66481;51.332;22.804;2023-08-21T16:48:21;21.13;;;9.15;;
77409;SDS011;66481;51.332;22.804;2023-08-21T16:52:22;12.70;;;7.57;;
77409;SDS011;66481;51.332;22.804;2023-08-21T16:56:24;24.05;;;9.20;;
77409;SDS011;66481;51.332;22.804;2023-08-21T17:00:26;18.15;;;7.50;;
77409;SDS011;66481;51.332;22.804;2023-08-21T17:04:27;9.02;;;5.82;;
77409;SDS011;66481;51.332;22.804;2023-08-21T17:08:28;10.25;;;5.30;;
77409;SDS011;66481;51.332;22.804;2023-08-21T17:12:30;8.65;;;5.13;;
77409;SDS011;66481;51.332;22.804;2023-08-21T17:16:31;8.02;;;5.10;;
77409;SDS011;66481;51.332;22.804;2023-08-21T17:20:33;7.78;;;4.88;;
77409;SDS011;66481;51.332;22.804;2023-08-21T17:24:34;7.40;;;4.63;;
77409;SDS011;66481;51.332;22.804;2023-08-21T17:28:38;10.35;;;6.15;;
77409;SDS011;66481;51.332;22.804;2023-08-21T17:32:39;14.13;;;6.32;;
77409;SDS011;66481;51.332;22.804;2023-08-21T17:36:41;10.32;;;5.40;;
77409;SDS011;66481;51.332;22.804;2023-08-21T17:40:43;14.57;;;6.07;;
77409;SDS011;66481;51.332;22.804;2023-08-21T17:44:45;7.82;;;4.80;;
77409;SDS011;66481;51.332;22.804;2023-08-21T17:48:46;10.02;;;5.80;;
77409;SDS011;66481;51.332;22.804;2023-08-21T17:52:48;15.93;;;12.32;;
77409;SDS011;66481;51.332;22.804;2023-08-21T17:56:49;6.20;;;5.60;;
77409;SDS011;66481;51.332;22.804;2023-08-21T18:00:51;9.65;;;6.63;;
77409;SDS011;66481;51.332;22.804;2023-08-21T18:04:53;6.38;;;4.55;;
77409;SDS011;66481;51.332;22.804;2023-08-21T18:08:54;5.40;;;4.72;;
77409;SDS011;66481;51.332;22.804;2023-08-21T18:12:55;5.03;;;3.80;;
77409;SDS011;66481;51.332;22.804;2023-08-21T18:17:00;4.75;;;4.25;;
77409;SDS011;66481;51.332;22.804;2023-08-21T18:21:10;8.48;;;5.32;;
77409;SDS011;66481;51.332;22.804;2023-08-21T18:25:13;19.75;;;7.82;;
77409;SDS011;66481;51.332;22.804;2023-08-21T18:29:14;28.17;;;9.50;;
77409;SDS011;66481;51.332;22.804;2023-08-21T18:33:15;9.82;;;5.53;;
77409;SDS011;66481;51.332;22.804;2023-08-21T18:37:17;9.95;;;7.20;;
77409;SDS011;66481;51.332;22.804;2023-08-21T18:41:18;12.82;;;8.90;;
77409;SDS011;66481;51.332;22.804;2023-08-21T18:45:20;12.50;;;7.70;;
77409;SDS011;66481;51.332;22.804;2023-08-21T18:49:21;9.50;;;5.60;;
77409;SDS011;66481;51.332;22.804;2023-08-21T18:53:23;8.48;;;5.82;;
77409;SDS011;66481;51.332;22.804;2023-08-21T18:57:24;7.25;;;5.53;;
77409;SDS011;66481;51.332;22.804;2023-08-21T19:01:25;7.07;;;5.28;;
77409;SDS011;66481;51.332;22.804;2023-08-21T19:05:28;7.70;;;5.97;;
77409;SDS011;66481;51.332;22.804;2023-08-21T19:09:30;8.10;;;5.40;;
77409;SDS011;66481;51.332;22.804;2023-08-21T19:13:32;7.82;;;5.68;;
77409;SDS011;66481;51.332;22.804;2023-08-21T19:17:34;7.53;;;5.53;;
77409;SDS011;66481;51.332;22.804;2023-08-21T19:21:36;8.82;;;6.45;;
77409;SDS011;66481;51.332;22.804;2023-08-21T19:30:59;17.13;;;9.57;;
77409;SDS011;66481;51.332;22.804;2023-08-21T19:35:00;10.43;;;7.28;;
77409;SDS011;66481;51.332;22.804;2023-08-21T19:39:01;13.38;;;7.47;;
77409;SDS011;66481;51.332;22.804;2023-08-21T19:43:03;12.15;;;7.60;;
77409;SDS011;66481;51.332;22.804;2023-08-21T19:47:05;14.32;;;8.43;;
77409;SDS011;66481;51.332;22.804;2023-08-21T19:51:09;16.80;;;10.27;;
77409;SDS011;66481;51.332;22.804;2023-08-21T19:55:11;13.80;;;8.05;;
77409;SDS011;66481;51.332;22.804;2023-08-21T19:59:15;10.82;;;7.05;;
77409;SDS011;66481;51.332;22.804;2023-08-21T20:03:20;11.18;;;7.40;;
77409;SDS011;66481;51.332;22.804;2023-08-21T20:07:21;9.88;;;6.13;;
77409;SDS011;66481;51.332;22.804;2023-08-21T20:11:24;10.18;;;7.25;;
77409;SDS011;66481;51.332;22.804;2023-08-21T20:15:35;8.40;;;5.78;;
77409;SDS011;66481;51.332;22.804;2023-08-21T20:19:40;10.90;;;6.50;;
77409;SDS011;66481;51.332;22.804;2023-08-21T20:23:43;8.18;;;6.25;;
77409;SDS011;66481;51.332;22.804;2023-08-21T20:27:50;8.77;;;6.18;;
77409;SDS011;66481;51.332;22.804;2023-08-21T20:31:52;9.00;;;6.25;;
77409;SDS011;66481;51.332;22.804;2023-08-21T20:35:55;9.45;;;7.30;;
77409;SDS011;66481;51.332;22.804;2023-08-21T20:40:01;10.75;;;6.97;;
77409;SDS011;66481;51.332;22.804;2023-08-21T20:44:06;10.43;;;6.63;;
77409;SDS011;66481;51.332;22.804;2023-08-21T20:48:09;10.32;;;6.93;;
77409;SDS011;66481;51.332;22.804;2023-08-21T20:52:11;8.40;;;6.85;;
77409;SDS011;66481;51.332;22.804;2023-08-21T20:56:13;12.02;;;8.23;;
77409;SDS011;66481;51.332;22.804;2023-08-21T21:00:15;14.43;;;7.95;;
77409;SDS011;66481;51.332;22.804;2023-08-21T21:04:16;11.27;;;6.38;;
77409;SDS011;66481;51.332;22.804;2023-08-21T21:08:18;13.23;;;8.60;;
77409;SDS011;66481;51.332;22.804;2023-08-21T21:12:20;14.13;;;9.07;;
77409;SDS011;66481;51.332;22.804;2023-08-21T21:16:23;10.38;;;7.32;;
77409;SDS011;66481;51.332;22.804;2023-08-21T21:20:26;10.13;;;6.80;;
77409;SDS011;66481;51.332;22.804;2023-08-21T21:24:28;7.90;;;6.70;;
77409;SDS011;66481;51.332;22.804;2023-08-21T21:28:29;8.73;;;6.60;;
77409;SDS011;66481;51.332;22.804;2023-08-21T21:32:32;11.02;;;6.20;;
77409;SDS011;66481;51.332;22.804;2023-08-21T21:36:33;8.45;;;6.47;;
77409;SDS011;66481;51.332;22.804;2023-08-21T21:40:35;12.93;;;9.25;;
77409;SDS011;66481;51.332;22.804;2023-08-21T21:44:43;8.00;;;6.70;;
77409;SDS011;66481;51.332;22.804;2023-08-21T21:48:45;9.15;;;6.30;;
77409;SDS011;66481;51.332;22.804;2023-08-21T21:52:48;13.63;;;7.50;;
77409;SDS011;66481;51.332;22.804;2023-08-21T21:56:51;9.25;;;6.63;;
77409;SDS011;66481;51.332;22.804;2023-08-21T22:00:53;12.50;;;7.10;;
77409;SDS011;66481;51.332;22.804;2023-08-21T22:05:04;12.35;;;6.63;;
77409;SDS011;66481;51.332;22.804;2023-08-21T22:09:06;10.88;;;6.72;;
77409;SDS011;66481;51.332;22.804;2023-08-21T22:23:08;10.05;;;7.60;;
77409;SDS011;66481;51.332;22.804;2023-08-21T22:27:08;11.73;;;7.70;;
77409;SDS011;66481;51.332;22.804;2023-08-21T22:31:10;13.50;;;7.28;;
77409;SDS011;66481;51.332;22.804;2023-08-21T22:35:12;9.85;;;8.13;;
77409;SDS011;66481;51.332;22.804;2023-08-21T22:39:14;9.38;;;7.07;;
77409;SDS011;66481;51.332;22.804;2023-08-21T22:43:15;9.23;;;7.05;;
77409;SDS011;66481;51.332;22.804;2023-08-21T22:47:17;9.65;;;7.20;;
77409;SDS011;66481;51.332;22.804;2023-08-21T22:51:18;13.02;;;8.02;;
77409;SDS011;66481;51.332;22.804;2023-08-21T22:55:20;9.73;;;7.53;;
77409;SDS011;66481;51.332;22.804;2023-08-21T22:59:22;11.20;;;7.68;;
77409;SDS011;66481;51.332;22.804;2023-08-21T23:03:23;9.48;;;7.15;;
77409;SDS011;66481;51.332;22.804;2023-08-21T23:07:24;11.55;;;7.65;;
77409;SDS011;66481;51.332;22.804;2023-08-21T23:11:26;12.05;;;7.90;;
77409;SDS011;66481;51.332;22.804;2023-08-21T23:15:27;10.20;;;7.78;;
77409;SDS011;66481;51.332;22.804;2023-08-21T23:19:29;11.40;;;6.88;;
77409;SDS011;66481;51.332;22.804;2023-08-21T23:23:32;10.10;;;6.78;;
77409;SDS011;66481;51.332;22.804;2023-08-21T23:27:33;9.73;;;6.65;;
77409;SDS011;66481;51.332;22.804;2023-08-21T23:31:34;12.70;;;9.00;;
77409;SDS011;66481;51.332;22.804;2023-08-21T23:35:38;12.48;;;8.02;;
77409;SDS011;66481;51.332;22.804;2023-08-21T23:39:39;12.23;;;7.65;;
77409;SDS011;66481;51.332;22.804;2023-08-21T23:43:41;9.82;;;6.95;;
77409;SDS011;66481;51.332;22.804;2023-08-21T23:47:42;10.20;;;7.10;;
77409;SDS011;66481;51.332;22.804;2023-08-21T23:51:44;10.23;;;7.07;;
77409;SDS011;66481;51.332;22.804;2023-08-21T23:55:45;9.13;;;6.75;;
77409;SDS011;66481;51.332;22.804;2023-08-21T23:59:47;13.02;;;6.80;;
